sensor_id;sensor_type;location;lat;lon;timestamp;temperature;humidity
21246;DHT22;10781;50.928;4.440;2024-02-21T00:02:11;10.60;99.90
21246;DHT22;10781;50.928;4.440;2024-02-21T00:04:37;10.70;99.90
21246;DHT22;10781;50.928;4.440;2024-02-21T00:07:04;10.70;99.90
21246;DHT22;10781;50.928;4.440;2024-02-21T00:09:29;10.70;99.90
21246;DHT22;10781;50.928;4.440;2024-02-21T00:11:55;10.70;99.90
21246;DHT22;10781;50.928;4.440;2024-02-21T00:14:21;10.70;99.90
21246;DHT22;10781;50.928;4.440;2024-02-21T00:16:47;10.80;99.90
21246;DHT22;10781;50.928;4.440;2024-02-21T00:19:12;10.80;99.90
21246;DHT22;10781;50.928;4.440;2024-02-21T00:21:40;10.80;99.90
21246;DHT22;10781;50.928;4.440;2024-02-21T00:24:05;10.80;99.90
21246;DHT22;10781;50.928;4.440;2024-02-21T00:26:31;10.80;99.90
21246;DHT22;10781;50.928;4.440;2024-02-21T00:28:57;10.90;99.90
21246;DHT22;10781;50.928;4.440;2024-02-21T00:31:22;11.00;99.90
21246;DHT22;10781;50.928;4.440;2024-02-21T00:33:48;11.00;99.90
21246;DHT22;10781;50.928;4.440;2024-02-21T00:36:14;11.10;99.90
21246;DHT22;10781;50.928;4.440;2024-02-21T00:38:40;11.00;99.90
21246;DHT22;10781;50.928;4.440;2024-02-21T00:41:06;10.90;99.90
21246;DHT22;10781;50.928;4.440;2024-02-21T00:43:32;10.90;99.90
21246;DHT22;10781;50.928;4.440;2024-02-21T00:45:57;11.00;99.90
21246;DHT22;10781;50.928;4.440;2024-02-21T00:48:23;11.00;99.90
21246;DHT22;10781;50.928;4.440;2024-02-21T00:50:48;11.10;99.90
21246;DHT22;10781;50.928;4.440;2024-02-21T00:53:14;11.20;99.90
21246;DHT22;10781;50.928;4.440;2024-02-21T00:55:40;11.00;99.90
21246;DHT22;10781;50.928;4.440;2024-02-21T00:58:05;11.10;99.90
21246;DHT22;10781;50.928;4.440;2024-02-21T01:00:31;10.90;99.90
21246;DHT22;10781;50.928;4.440;2024-02-21T01:02:57;10.90;99.90
21246;DHT22;10781;50.928;4.440;2024-02-21T01:05:23;10.70;99.90
21246;DHT22;10781;50.928;4.440;2024-02-21T01:07:48;10.70;99.90
21246;DHT22;10781;50.928;4.440;2024-02-21T01:10:14;10.50;99.90
21246;DHT22;10781;50.928;4.440;2024-02-21T01:12:39;10.50;99.90
21246;DHT22;10781;50.928;4.440;2024-02-21T01:15:05;10.50;99.90
21246;DHT22;10781;50.928;4.440;2024-02-21T01:17:31;10.60;99.90
21246;DHT22;10781;50.928;4.440;2024-02-21T01:19:57;10.70;99.90
21246;DHT22;10781;50.928;4.440;2024-02-21T01:22:22;10.70;99.90
21246;DHT22;10781;50.928;4.440;2024-02-21T01:24:48;10.60;99.90
21246;DHT22;10781;50.928;4.440;2024-02-21T01:27:13;10.70;99.90
21246;DHT22;10781;50.928;4.440;2024-02-21T01:29:39;10.70;99.90
21246;DHT22;10781;50.928;4.440;2024-02-21T01:32:05;10.70;99.90
21246;DHT22;10781;50.928;4.440;2024-02-21T01:34:30;10.90;99.90
21246;DHT22;10781;50.928;4.440;2024-02-21T01:36:56;10.80;99.90
21246;DHT22;10781;50.928;4.440;2024-02-21T01:39:22;10.70;99.90
21246;DHT22;10781;50.928;4.440;2024-02-21T01:41:47;10.70;99.90
21246;DHT22;10781;50.928;4.440;2024-02-21T01:44:13;10.70;99.90
21246;DHT22;10781;50.928;4.440;2024-02-21T01:46:39;10.70;99.90
21246;DHT22;10781;50.928;4.440;2024-02-21T01:49:05;10.70;99.90
21246;DHT22;10781;50.928;4.440;2024-02-21T01:51:32;10.60;99.90
21246;DHT22;10781;50.928;4.440;2024-02-21T01:53:58;10.60;99.90
21246;DHT22;10781;50.928;4.440;2024-02-21T01:56:23;10.40;99.90
21246;DHT22;10781;50.928;4.440;2024-02-21T01:58:49;10.50;99.90
21246;DHT22;10781;50.928;4.440;2024-02-21T02:01:16;10.70;99.90
21246;DHT22;10781;50.928;4.440;2024-02-21T02:03:44;10.70;99.90
21246;DHT22;10781;50.928;4.440;2024-02-21T02:06:10;10.70;99.90
21246;DHT22;10781;50.928;4.440;2024-02-21T02:08:36;10.60;99.90
21246;DHT22;10781;50.928;4.440;2024-02-21T02:11:02;10.70;99.90
21246;DHT22;10781;50.928;4.440;2024-02-21T02:13:28;10.70;99.90
21246;DHT22;10781;50.928;4.440;2024-02-21T02:15:54;10.70;99.90
21246;DHT22;10781;50.928;4.440;2024-02-21T02:18:20;10.60;99.90
21246;DHT22;10781;50.928;4.440;2024-02-21T02:20:46;10.70;99.90
21246;DHT22;10781;50.928;4.440;2024-02-21T02:23:22;10.80;99.90
21246;DHT22;10781;50.928;4.440;2024-02-21T02:25:48;10.90;99.90
21246;DHT22;10781;50.928;4.440;2024-02-21T02:28:17;10.90;99.90
21246;DHT22;10781;50.928;4.440;2024-02-21T02:30:43;10.80;99.90
21246;DHT22;10781;50.928;4.440;2024-02-21T02:33:09;10.90;99.90
21246;DHT22;10781;50.928;4.440;2024-02-21T02:35:35;11.10;99.90
21246;DHT22;10781;50.928;4.440;2024-02-21T02:38:02;11.10;99.90
21246;DHT22;10781;50.928;4.440;2024-02-21T02:40:28;10.90;99.90
21246;DHT22;10781;50.928;4.440;2024-02-21T02:42:54;10.90;99.90
21246;DHT22;10781;50.928;4.440;2024-02-21T02:45:23;10.80;99.90
21246;DHT22;10781;50.928;4.440;2024-02-21T02:47:52;10.80;99.90
21246;DHT22;10781;50.928;4.440;2024-02-21T02:50:19;10.70;99.90
21246;DHT22;10781;50.928;4.440;2024-02-21T02:52:45;10.90;99.90
21246;DHT22;10781;50.928;4.440;2024-02-21T02:55:11;11.00;99.90
21246;DHT22;10781;50.928;4.440;2024-02-21T02:57:37;10.80;99.90
21246;DHT22;10781;50.928;4.440;2024-02-21T03:00:03;11.00;99.90
21246;DHT22;10781;50.928;4.440;2024-02-21T03:02:29;10.90;99.90
21246;DHT22;10781;50.928;4.440;2024-02-21T03:04:56;10.70;99.90
21246;DHT22;10781;50.928;4.440;2024-02-21T03:07:23;10.70;99.90
21246;DHT22;10781;50.928;4.440;2024-02-21T03:09:50;10.80;99.90
21246;DHT22;10781;50.928;4.440;2024-02-21T03:12:15;10.80;99.90
21246;DHT22;10781;50.928;4.440;2024-02-21T03:14:49;10.80;99.90
21246;DHT22;10781;50.928;4.440;2024-02-21T03:17:15;10.80;99.90
21246;DHT22;10781;50.928;4.440;2024-02-21T03:19:41;10.90;99.90
21246;DHT22;10781;50.928;4.440;2024-02-21T03:22:06;10.90;99.90
21246;DHT22;10781;50.928;4.440;2024-02-21T03:24:33;11.10;99.90
21246;DHT22;10781;50.928;4.440;2024-02-21T03:26:58;11.10;99.90
21246;DHT22;10781;50.928;4.440;2024-02-21T03:29:24;11.00;99.90
21246;DHT22;10781;50.928;4.440;2024-02-21T03:31:50;11.10;99.90
21246;DHT22;10781;50.928;4.440;2024-02-21T03:34:16;10.80;99.90
21246;DHT22;10781;50.928;4.440;2024-02-21T03:36:41;10.90;99.90
21246;DHT22;10781;50.928;4.440;2024-02-21T03:39:07;10.80;99.90
21246;DHT22;10781;50.928;4.440;2024-02-21T03:41:34;10.70;99.90
21246;DHT22;10781;50.928;4.440;2024-02-21T03:44:00;10.50;99.90
21246;DHT22;10781;50.928;4.440;2024-02-21T03:46:27;10.60;99.90
21246;DHT22;10781;50.928;4.440;2024-02-21T03:48:53;10.60;99.90
21246;DHT22;10781;50.928;4.440;2024-02-21T03:51:18;10.60;99.90
21246;DHT22;10781;50.928;4.440;2024-02-21T03:53:44;10.50;99.90
21246;DHT22;10781;50.928;4.440;2024-02-21T03:56:10;10.60;99.90
21246;DHT22;10781;50.928;4.440;2024-02-21T03:58:35;10.60;99.90
21246;DHT22;10781;50.928;4.440;2024-02-21T04:01:01;10.60;99.90
21246;DHT22;10781;50.928;4.440;2024-02-21T04:03:27;10.60;99.90
21246;DHT22;10781;50.928;4.440;2024-02-21T04:05:53;10.70;99.90
21246;DHT22;10781;50.928;4.440;2024-02-21T04:08:19;10.80;99.90
21246;DHT22;10781;50.928;4.440;2024-02-21T04:10:44;10.80;99.90
21246;DHT22;10781;50.928;4.440;2024-02-21T04:13:10;10.80;99.90
21246;DHT22;10781;50.928;4.440;2024-02-21T04:15:36;10.70;99.90
21246;DHT22;10781;50.928;4.440;2024-02-21T04:18:02;10.80;99.90
21246;DHT22;10781;50.928;4.440;2024-02-21T04:20:29;10.70;99.90
21246;DHT22;10781;50.928;4.440;2024-02-21T04:22:55;10.70;99.90
21246;DHT22;10781;50.928;4.440;2024-02-21T04:25:20;10.80;99.90
21246;DHT22;10781;50.928;4.440;2024-02-21T04:27:46;11.00;99.90
21246;DHT22;10781;50.928;4.440;2024-02-21T04:30:12;11.10;99.90
21246;DHT22;10781;50.928;4.440;2024-02-21T04:32:38;11.00;99.90
21246;DHT22;10781;50.928;4.440;2024-02-21T04:35:04;11.00;99.90
21246;DHT22;10781;50.928;4.440;2024-02-21T04:37:29;11.30;99.90
21246;DHT22;10781;50.928;4.440;2024-02-21T04:39:56;11.30;99.90
21246;DHT22;10781;50.928;4.440;2024-02-21T04:42:22;11.20;99.90
21246;DHT22;10781;50.928;4.440;2024-02-21T04:44:47;11.20;99.90
21246;DHT22;10781;50.928;4.440;2024-02-21T04:47:13;10.90;99.90
21246;DHT22;10781;50.928;4.440;2024-02-21T04:49:39;10.80;99.90
21246;DHT22;10781;50.928;4.440;2024-02-21T04:52:05;10.70;99.90
21246;DHT22;10781;50.928;4.440;2024-02-21T04:54:30;10.80;99.90
21246;DHT22;10781;50.928;4.440;2024-02-21T04:56:56;10.90;99.90
21246;DHT22;10781;50.928;4.440;2024-02-21T04:59:22;10.90;99.90
21246;DHT22;10781;50.928;4.440;2024-02-21T05:01:47;10.90;99.90
21246;DHT22;10781;50.928;4.440;2024-02-21T05:04:13;11.00;99.90
21246;DHT22;10781;50.928;4.440;2024-02-21T05:06:39;11.00;99.90
21246;DHT22;10781;50.928;4.440;2024-02-21T05:09:06;11.00;99.90
21246;DHT22;10781;50.928;4.440;2024-02-21T05:11:32;10.90;99.90
21246;DHT22;10781;50.928;4.440;2024-02-21T05:13:57;10.90;99.90
21246;DHT22;10781;50.928;4.440;2024-02-21T05:16:23;10.90;99.90
21246;DHT22;10781;50.928;4.440;2024-02-21T05:18:49;10.80;99.90
21246;DHT22;10781;50.928;4.440;2024-02-21T05:21:14;10.70;99.90
21246;DHT22;10781;50.928;4.440;2024-02-21T05:23:40;10.80;99.90
21246;DHT22;10781;50.928;4.440;2024-02-21T05:26:06;11.00;99.90
21246;DHT22;10781;50.928;4.440;2024-02-21T05:28:32;11.00;99.90
21246;DHT22;10781;50.928;4.440;2024-02-21T05:30:59;10.90;99.90
21246;DHT22;10781;50.928;4.440;2024-02-21T05:33:25;10.90;99.90
21246;DHT22;10781;50.928;4.440;2024-02-21T05:35:51;10.90;99.90
21246;DHT22;10781;50.928;4.440;2024-02-21T05:38:17;10.80;99.90
21246;DHT22;10781;50.928;4.440;2024-02-21T05:40:44;10.80;99.90
21246;DHT22;10781;50.928;4.440;2024-02-21T05:43:10;10.80;99.90
21246;DHT22;10781;50.928;4.440;2024-02-21T05:45:36;10.90;99.90
21246;DHT22;10781;50.928;4.440;2024-02-21T05:48:01;11.00;99.90
21246;DHT22;10781;50.928;4.440;2024-02-21T05:50:28;11.00;99.90
21246;DHT22;10781;50.928;4.440;2024-02-21T05:52:57;11.00;99.90
21246;DHT22;10781;50.928;4.440;2024-02-21T05:55:22;11.00;99.90
21246;DHT22;10781;50.928;4.440;2024-02-21T05:57:48;11.00;99.90
21246;DHT22;10781;50.928;4.440;2024-02-21T06:00:14;11.00;99.90
21246;DHT22;10781;50.928;4.440;2024-02-21T06:02:41;11.00;99.90
21246;DHT22;10781;50.928;4.440;2024-02-21T06:05:07;11.00;99.90
21246;DHT22;10781;50.928;4.440;2024-02-21T06:07:34;11.20;99.90
21246;DHT22;10781;50.928;4.440;2024-02-21T06:10:01;11.10;99.90
21246;DHT22;10781;50.928;4.440;2024-02-21T06:12:26;11.00;99.90
21246;DHT22;10781;50.928;4.440;2024-02-21T06:14:52;10.90;99.90
21246;DHT22;10781;50.928;4.440;2024-02-21T06:17:18;11.00;99.90
21246;DHT22;10781;50.928;4.440;2024-02-21T06:19:44;11.00;99.90
21246;DHT22;10781;50.928;4.440;2024-02-21T06:22:10;11.20;99.90
21246;DHT22;10781;50.928;4.440;2024-02-21T06:24:36;11.20;99.90
21246;DHT22;10781;50.928;4.440;2024-02-21T06:27:06;11.20;99.90
21246;DHT22;10781;50.928;4.440;2024-02-21T06:29:32;11.10;99.90
21246;DHT22;10781;50.928;4.440;2024-02-21T06:31:58;11.10;99.90
21246;DHT22;10781;50.928;4.440;2024-02-21T06:34:24;11.10;99.90
21246;DHT22;10781;50.928;4.440;2024-02-21T06:36:50;11.10;99.90
21246;DHT22;10781;50.928;4.440;2024-02-21T06:39:16;11.30;99.90
21246;DHT22;10781;50.928;4.440;2024-02-21T06:41:42;11.40;99.90
21246;DHT22;10781;50.928;4.440;2024-02-21T06:44:08;11.20;99.90
21246;DHT22;10781;50.928;4.440;2024-02-21T06:46:33;11.00;99.90
21246;DHT22;10781;50.928;4.440;2024-02-21T06:49:00;10.90;99.90
21246;DHT22;10781;50.928;4.440;2024-02-21T06:51:26;11.00;99.90
21246;DHT22;10781;50.928;4.440;2024-02-21T06:53:53;10.90;99.90
21246;DHT22;10781;50.928;4.440;2024-02-21T06:56:18;10.90;99.90
21246;DHT22;10781;50.928;4.440;2024-02-21T06:58:44;11.00;99.90
21246;DHT22;10781;50.928;4.440;2024-02-21T07:01:10;11.00;99.90
21246;DHT22;10781;50.928;4.440;2024-02-21T07:03:36;10.90;99.90
21246;DHT22;10781;50.928;4.440;2024-02-21T07:06:02;11.00;99.90
21246;DHT22;10781;50.928;4.440;2024-02-21T07:08:28;11.20;99.90
21246;DHT22;10781;50.928;4.440;2024-02-21T07:10:53;11.20;99.90
21246;DHT22;10781;50.928;4.440;2024-02-21T07:13:19;11.20;99.90
21246;DHT22;10781;50.928;4.440;2024-02-21T07:15:46;11.00;99.90
21246;DHT22;10781;50.928;4.440;2024-02-21T07:18:11;11.00;99.90
21246;DHT22;10781;50.928;4.440;2024-02-21T07:20:37;11.00;99.90
21246;DHT22;10781;50.928;4.440;2024-02-21T07:23:03;10.90;99.90
21246;DHT22;10781;50.928;4.440;2024-02-21T07:25:29;10.80;99.90
21246;DHT22;10781;50.928;4.440;2024-02-21T07:27:55;10.70;99.90
21246;DHT22;10781;50.928;4.440;2024-02-21T07:30:21;10.70;99.90
21246;DHT22;10781;50.928;4.440;2024-02-21T07:32:49;10.60;99.90
21246;DHT22;10781;50.928;4.440;2024-02-21T07:35:15;10.60;99.90
21246;DHT22;10781;50.928;4.440;2024-02-21T07:37:41;10.70;99.90
21246;DHT22;10781;50.928;4.440;2024-02-21T07:40:12;10.90;99.90
21246;DHT22;10781;50.928;4.440;2024-02-21T07:42:38;10.90;99.90
21246;DHT22;10781;50.928;4.440;2024-02-21T07:45:04;11.00;99.90
21246;DHT22;10781;50.928;4.440;2024-02-21T07:47:30;10.70;99.90
21246;DHT22;10781;50.928;4.440;2024-02-21T07:49:55;10.80;99.90
21246;DHT22;10781;50.928;4.440;2024-02-21T07:52:21;10.70;99.90
21246;DHT22;10781;50.928;4.440;2024-02-21T07:54:47;10.70;99.90
21246;DHT22;10781;50.928;4.440;2024-02-21T07:57:12;10.80;99.90
21246;DHT22;10781;50.928;4.440;2024-02-21T07:59:38;10.80;99.90
21246;DHT22;10781;50.928;4.440;2024-02-21T08:02:03;10.80;99.90
21246;DHT22;10781;50.928;4.440;2024-02-21T08:04:32;10.80;99.90
21246;DHT22;10781;50.928;4.440;2024-02-21T08:06:58;10.80;99.90
21246;DHT22;10781;50.928;4.440;2024-02-21T08:09:29;10.80;99.90
21246;DHT22;10781;50.928;4.440;2024-02-21T08:11:55;10.80;99.90
21246;DHT22;10781;50.928;4.440;2024-02-21T08:14:21;10.80;99.90
21246;DHT22;10781;50.928;4.440;2024-02-21T08:16:47;10.90;99.90
21246;DHT22;10781;50.928;4.440;2024-02-21T08:19:12;11.00;99.90
21246;DHT22;10781;50.928;4.440;2024-02-21T08:21:38;11.10;99.90
21246;DHT22;10781;50.928;4.440;2024-02-21T08:24:04;11.10;99.90
21246;DHT22;10781;50.928;4.440;2024-02-21T08:26:30;11.10;99.90
21246;DHT22;10781;50.928;4.440;2024-02-21T08:28:57;11.20;99.90
21246;DHT22;10781;50.928;4.440;2024-02-21T08:31:26;11.20;99.90
21246;DHT22;10781;50.928;4.440;2024-02-21T08:34:00;11.20;99.90
21246;DHT22;10781;50.928;4.440;2024-02-21T08:36:38;11.20;99.90
21246;DHT22;10781;50.928;4.440;2024-02-21T08:39:04;11.20;99.90
21246;DHT22;10781;50.928;4.440;2024-02-21T08:41:33;11.30;99.90
21246;DHT22;10781;50.928;4.440;2024-02-21T08:43:59;11.30;99.90
21246;DHT22;10781;50.928;4.440;2024-02-21T08:46:25;11.20;99.90
21246;DHT22;10781;50.928;4.440;2024-02-21T08:48:52;11.10;99.90
21246;DHT22;10781;50.928;4.440;2024-02-21T08:51:18;10.90;99.90
21246;DHT22;10781;50.928;4.440;2024-02-21T08:53:44;10.90;99.90
21246;DHT22;10781;50.928;4.440;2024-02-21T08:56:10;11.10;99.90
21246;DHT22;10781;50.928;4.440;2024-02-21T08:58:37;11.00;99.90
21246;DHT22;10781;50.928;4.440;2024-02-21T09:01:03;11.00;99.90
21246;DHT22;10781;50.928;4.440;2024-02-21T09:03:36;11.00;99.90
21246;DHT22;10781;50.928;4.440;2024-02-21T09:06:02;11.10;99.90
21246;DHT22;10781;50.928;4.440;2024-02-21T09:08:28;11.20;99.90
21246;DHT22;10781;50.928;4.440;2024-02-21T09:10:53;11.30;99.90
21246;DHT22;10781;50.928;4.440;2024-02-21T09:13:19;11.30;99.90
21246;DHT22;10781;50.928;4.440;2024-02-21T09:15:45;11.30;99.90
21246;DHT22;10781;50.928;4.440;2024-02-21T09:18:10;11.50;99.90
21246;DHT22;10781;50.928;4.440;2024-02-21T09:20:36;11.60;99.90
21246;DHT22;10781;50.928;4.440;2024-02-21T09:23:01;11.60;99.90
21246;DHT22;10781;50.928;4.440;2024-02-21T09:25:27;11.50;99.90
21246;DHT22;10781;50.928;4.440;2024-02-21T09:27:54;11.60;99.90
21246;DHT22;10781;50.928;4.440;2024-02-21T09:30:20;11.60;99.90
21246;DHT22;10781;50.928;4.440;2024-02-21T09:32:46;11.60;99.90
21246;DHT22;10781;50.928;4.440;2024-02-21T09:35:12;11.60;99.90
21246;DHT22;10781;50.928;4.440;2024-02-21T09:37:38;11.70;99.90
21246;DHT22;10781;50.928;4.440;2024-02-21T09:40:05;11.70;99.90
21246;DHT22;10781;50.928;4.440;2024-02-21T09:42:41;11.70;99.90
21246;DHT22;10781;50.928;4.440;2024-02-21T09:45:19;11.70;99.90
21246;DHT22;10781;50.928;4.440;2024-02-21T09:48:15;11.80;99.90
21246;DHT22;10781;50.928;4.440;2024-02-21T09:50:43;11.70;99.90
21246;DHT22;10781;50.928;4.440;2024-02-21T09:53:12;11.90;99.90
21246;DHT22;10781;50.928;4.440;2024-02-21T09:55:39;11.70;99.90
21246;DHT22;10781;50.928;4.440;2024-02-21T09:58:07;11.70;99.90
21246;DHT22;10781;50.928;4.440;2024-02-21T10:00:33;11.90;99.90
21246;DHT22;10781;50.928;4.440;2024-02-21T10:02:59;12.00;99.90
21246;DHT22;10781;50.928;4.440;2024-02-21T10:05:25;12.20;99.90
21246;DHT22;10781;50.928;4.440;2024-02-21T10:07:51;12.10;99.90
21246;DHT22;10781;50.928;4.440;2024-02-21T10:10:17;12.20;99.90
21246;DHT22;10781;50.928;4.440;2024-02-21T10:12:53;12.20;99.90
21246;DHT22;10781;50.928;4.440;2024-02-21T10:15:24;12.30;99.90
21246;DHT22;10781;50.928;4.440;2024-02-21T10:17:57;12.30;99.90
21246;DHT22;10781;50.928;4.440;2024-02-21T10:20:23;12.40;99.90
21246;DHT22;10781;50.928;4.440;2024-02-21T10:22:59;12.50;99.90
21246;DHT22;10781;50.928;4.440;2024-02-21T10:25:27;12.50;99.90
21246;DHT22;10781;50.928;4.440;2024-02-21T10:27:52;12.40;99.90
21246;DHT22;10781;50.928;4.440;2024-02-21T10:30:18;12.40;99.90
21246;DHT22;10781;50.928;4.440;2024-02-21T10:32:50;12.50;99.90
21246;DHT22;10781;50.928;4.440;2024-02-21T10:35:30;12.60;99.90
21246;DHT22;10781;50.928;4.440;2024-02-21T10:37:56;12.70;99.90
21246;DHT22;10781;50.928;4.440;2024-02-21T10:40:27;12.90;99.90
21246;DHT22;10781;50.928;4.440;2024-02-21T10:43:01;12.80;99.90
21246;DHT22;10781;50.928;4.440;2024-02-21T10:45:31;12.80;99.90
21246;DHT22;10781;50.928;4.440;2024-02-21T10:48:13;12.50;99.90
21246;DHT22;10781;50.928;4.440;2024-02-21T10:50:56;12.50;99.90
21246;DHT22;10781;50.928;4.440;2024-02-21T10:56:30;12.60;99.90
21246;DHT22;10781;50.928;4.440;2024-02-21T10:59:01;12.50;99.90
21246;DHT22;10781;50.928;4.440;2024-02-21T11:01:28;12.50;99.90
21246;DHT22;10781;50.928;4.440;2024-02-21T11:03:58;12.80;99.90
21246;DHT22;10781;50.928;4.440;2024-02-21T11:06:26;12.80;99.90
21246;DHT22;10781;50.928;4.440;2024-02-21T11:09:09;13.10;99.90
21246;DHT22;10781;50.928;4.440;2024-02-21T11:11:40;13.40;99.90
21246;DHT22;10781;50.928;4.440;2024-02-21T11:14:07;13.50;99.90
21246;DHT22;10781;50.928;4.440;2024-02-21T11:16:40;13.60;99.90
21246;DHT22;10781;50.928;4.440;2024-02-21T11:19:28;13.50;99.90
21246;DHT22;10781;50.928;4.440;2024-02-21T11:21:55;13.30;99.90
21246;DHT22;10781;50.928;4.440;2024-02-21T11:24:29;13.30;99.90
21246;DHT22;10781;50.928;4.440;2024-02-21T11:27:09;13.50;99.90
21246;DHT22;10781;50.928;4.440;2024-02-21T11:29:40;13.50;99.90
21246;DHT22;10781;50.928;4.440;2024-02-21T11:32:10;13.50;99.90
21246;DHT22;10781;50.928;4.440;2024-02-21T11:34:36;13.40;99.90
21246;DHT22;10781;50.928;4.440;2024-02-21T11:37:15;13.20;99.90
21246;DHT22;10781;50.928;4.440;2024-02-21T11:39:41;12.90;99.90
21246;DHT22;10781;50.928;4.440;2024-02-21T11:42:08;12.90;99.90
21246;DHT22;10781;50.928;4.440;2024-02-21T11:44:35;12.90;99.90
21246;DHT22;10781;50.928;4.440;2024-02-21T11:47:06;12.90;99.90
21246;DHT22;10781;50.928;4.440;2024-02-21T11:49:44;12.70;99.90
21246;DHT22;10781;50.928;4.440;2024-02-21T11:52:11;12.70;99.90
21246;DHT22;10781;50.928;4.440;2024-02-21T11:54:36;12.60;99.90
21246;DHT22;10781;50.928;4.440;2024-02-21T11:57:02;12.60;99.90
21246;DHT22;10781;50.928;4.440;2024-02-21T11:59:33;12.60;99.90
21246;DHT22;10781;50.928;4.440;2024-02-21T12:02:00;12.60;99.90
21246;DHT22;10781;50.928;4.440;2024-02-21T12:04:26;12.70;99.90
21246;DHT22;10781;50.928;4.440;2024-02-21T12:06:54;12.70;99.90
21246;DHT22;10781;50.928;4.440;2024-02-21T12:09:22;12.80;99.90
21246;DHT22;10781;50.928;4.440;2024-02-21T12:12:03;12.70;99.90
21246;DHT22;10781;50.928;4.440;2024-02-21T12:14:30;12.60;99.90
21246;DHT22;10781;50.928;4.440;2024-02-21T12:16:57;12.70;99.90
21246;DHT22;10781;50.928;4.440;2024-02-21T12:19:23;12.80;99.90
21246;DHT22;10781;50.928;4.440;2024-02-21T12:21:49;12.70;99.90
21246;DHT22;10781;50.928;4.440;2024-02-21T12:24:25;12.70;99.90
21246;DHT22;10781;50.928;4.440;2024-02-21T12:26:54;12.60;99.90
21246;DHT22;10781;50.928;4.440;2024-02-21T12:29:21;12.50;99.90
21246;DHT22;10781;50.928;4.440;2024-02-21T12:31:47;12.60;99.90
21246;DHT22;10781;50.928;4.440;2024-02-21T12:34:15;12.70;99.90
21246;DHT22;10781;50.928;4.440;2024-02-21T12:36:44;12.50;99.90
21246;DHT22;10781;50.928;4.440;2024-02-21T12:39:12;12.70;99.90
21246;DHT22;10781;50.928;4.440;2024-02-21T12:41:39;12.80;99.90
21246;DHT22;10781;50.928;4.440;2024-02-21T12:44:06;12.80;99.90
21246;DHT22;10781;50.928;4.440;2024-02-21T12:46:36;12.70;99.90
21246;DHT22;10781;50.928;4.440;2024-02-21T12:49:02;12.50;99.90
21246;DHT22;10781;50.928;4.440;2024-02-21T12:51:31;12.60;99.90
21246;DHT22;10781;50.928;4.440;2024-02-21T12:53:57;12.60;99.90
21246;DHT22;10781;50.928;4.440;2024-02-21T12:56:23;12.90;99.90
21246;DHT22;10781;50.928;4.440;2024-02-21T12:58:50;12.80;99.90
21246;DHT22;10781;50.928;4.440;2024-02-21T13:01:16;13.00;99.90
21246;DHT22;10781;50.928;4.440;2024-02-21T13:03:41;12.80;99.90
21246;DHT22;10781;50.928;4.440;2024-02-21T13:06:07;12.80;99.90
21246;DHT22;10781;50.928;4.440;2024-02-21T13:08:36;12.80;99.90
21246;DHT22;10781;50.928;4.440;2024-02-21T13:11:02;13.00;99.90
21246;DHT22;10781;50.928;4.440;2024-02-21T13:13:27;12.90;99.90
21246;DHT22;10781;50.928;4.440;2024-02-21T13:15:53;12.90;99.90
21246;DHT22;10781;50.928;4.440;2024-02-21T13:18:19;12.90;99.90
21246;DHT22;10781;50.928;4.440;2024-02-21T13:20:44;13.00;99.90
21246;DHT22;10781;50.928;4.440;2024-02-21T13:23:10;13.00;99.90
21246;DHT22;10781;50.928;4.440;2024-02-21T13:25:35;12.80;99.90
21246;DHT22;10781;50.928;4.440;2024-02-21T13:28:01;12.80;99.90
21246;DHT22;10781;50.928;4.440;2024-02-21T13:30:28;12.70;99.90
21246;DHT22;10781;50.928;4.440;2024-02-21T13:32:54;12.80;99.90
21246;DHT22;10781;50.928;4.440;2024-02-21T13:35:20;12.80;99.90
21246;DHT22;10781;50.928;4.440;2024-02-21T13:37:46;12.80;99.90
21246;DHT22;10781;50.928;4.440;2024-02-21T13:40:12;12.80;99.90
21246;DHT22;10781;50.928;4.440;2024-02-21T13:42:40;12.70;99.90
21246;DHT22;10781;50.928;4.440;2024-02-21T13:45:07;12.60;99.90
21246;DHT22;10781;50.928;4.440;2024-02-21T13:47:33;12.40;99.90
21246;DHT22;10781;50.928;4.440;2024-02-21T13:49:59;12.30;99.90
21246;DHT22;10781;50.928;4.440;2024-02-21T13:52:25;12.20;99.90
21246;DHT22;10781;50.928;4.440;2024-02-21T13:54:52;12.10;99.90
21246;DHT22;10781;50.928;4.440;2024-02-21T13:57:18;11.90;99.90
21246;DHT22;10781;50.928;4.440;2024-02-21T13:59:43;11.80;99.90
21246;DHT22;10781;50.928;4.440;2024-02-21T14:02:09;11.90;99.90
21246;DHT22;10781;50.928;4.440;2024-02-21T14:04:35;11.90;99.90
21246;DHT22;10781;50.928;4.440;2024-02-21T14:07:01;11.70;99.90
21246;DHT22;10781;50.928;4.440;2024-02-21T14:09:27;11.50;99.90
21246;DHT22;10781;50.928;4.440;2024-02-21T14:11:55;11.60;99.90
21246;DHT22;10781;50.928;4.440;2024-02-21T14:14:21;11.60;99.90
21246;DHT22;10781;50.928;4.440;2024-02-21T14:16:47;11.60;99.90
21246;DHT22;10781;50.928;4.440;2024-02-21T14:19:13;11.60;99.90
21246;DHT22;10781;50.928;4.440;2024-02-21T14:21:39;11.40;99.90
21246;DHT22;10781;50.928;4.440;2024-02-21T14:24:05;11.40;99.90
21246;DHT22;10781;50.928;4.440;2024-02-21T14:26:31;11.30;99.90
21246;DHT22;10781;50.928;4.440;2024-02-21T14:28:57;11.20;99.90
21246;DHT22;10781;50.928;4.440;2024-02-21T14:31:23;11.10;99.90
21246;DHT22;10781;50.928;4.440;2024-02-21T14:33:49;11.10;99.90
21246;DHT22;10781;50.928;4.440;2024-02-21T14:36:15;11.00;99.90
21246;DHT22;10781;50.928;4.440;2024-02-21T14:38:41;11.00;99.90
21246;DHT22;10781;50.928;4.440;2024-02-21T14:41:08;11.00;99.90
21246;DHT22;10781;50.928;4.440;2024-02-21T14:43:34;10.90;99.90
21246;DHT22;10781;50.928;4.440;2024-02-21T14:46:00;10.80;99.90
21246;DHT22;10781;50.928;4.440;2024-02-21T14:48:30;10.80;99.90
21246;DHT22;10781;50.928;4.440;2024-02-21T14:50:55;10.60;99.90
21246;DHT22;10781;50.928;4.440;2024-02-21T14:53:21;10.60;99.90
21246;DHT22;10781;50.928;4.440;2024-02-21T14:55:46;10.60;99.90
21246;DHT22;10781;50.928;4.440;2024-02-21T14:58:12;10.60;99.90
21246;DHT22;10781;50.928;4.440;2024-02-21T15:00:38;10.50;99.90
21246;DHT22;10781;50.928;4.440;2024-02-21T15:03:04;10.40;99.90
21246;DHT22;10781;50.928;4.440;2024-02-21T15:05:30;10.40;99.90
21246;DHT22;10781;50.928;4.440;2024-02-21T15:07:56;10.40;99.90
21246;DHT22;10781;50.928;4.440;2024-02-21T15:10:23;10.30;99.90
21246;DHT22;10781;50.928;4.440;2024-02-21T15:12:49;10.30;99.90
21246;DHT22;10781;50.928;4.440;2024-02-21T15:15:14;10.20;99.90
21246;DHT22;10781;50.928;4.440;2024-02-21T15:17:42;10.30;99.90
21246;DHT22;10781;50.928;4.440;2024-02-21T15:20:08;10.30;99.90
21246;DHT22;10781;50.928;4.440;2024-02-21T15:22:34;10.30;99.90
21246;DHT22;10781;50.928;4.440;2024-02-21T15:25:01;10.30;99.90
21246;DHT22;10781;50.928;4.440;2024-02-21T15:27:27;10.20;99.90
21246;DHT22;10781;50.928;4.440;2024-02-21T15:29:54;10.10;99.90
21246;DHT22;10781;50.928;4.440;2024-02-21T15:32:20;10.20;99.90